OOCL Hamburg — VRZK9 — position and weather

sailwx.info

Track history (hours):
 
Tides and Currents Weather Stations Pressure Air Temp Water Temp Dewpoint Dewpoint Depression Visibility Wind Speed Wind Dir Waves Ship Positions

OOCL Hamburg

Last reported at 2015-Mar-02 13:04 UTC. Time now 2015-Mar-05 20:15 UTC.
Position N 01°59' E 102°12'.

Length 323 m; beam 42.8 m; draft 14.5 m.

Type: Cargo ship. MMSI: 477702000.

Date/timePositionNaut miles runAvg speedWind from/ knotsBaromVisibWave heightAir tempDewpointWater temp
2015-Mar-02 13:04N 01°59' E 102°12'1018.2
2015-Mar-02 12:31N 01°55' E 102°21'1818.1
2015-Mar-02 11:32N 01°46' E 102°37'7518.7
2015-Mar-02 07:31N 01°09' E 103°42'1111.5
2015-Mar-02 06:33N 01°13' E 103°53'3 3.4
2015-Mar-02 05:33N 01°16' E 103°50'0 0.0
2015-Mar-02 04:33N 01°16' E 103°50'0 0.0
2015-Mar-02 03:32N 01°16' E 103°50'0 0.0
2015-Mar-02 02:32N 01°16' E 103°50'0 0.0
2015-Mar-02 01:32N 01°16' E 103°50'0 0.0
2015-Mar-02 00:32N 01°16' E 103°50'0 0.0
2015-Mar-01 23:20N 01°16' E 103°50'0 0.0
2015-Mar-01 22:32N 01°16' E 103°50'0 0.0
2015-Mar-01 21:32N 01°16' E 103°50'0 0.0
2015-Mar-01 20:32N 01°16' E 103°50'0 0.0
2015-Mar-01 19:20N 01°16' E 103°50'0 0.0
2015-Mar-01 18:32N 01°16' E 103°50'0 0.0
2015-Mar-01 17:26N 01°16' E 103°50'0 0.0
2015-Mar-01 16:32N 01°16' E 103°50'0 0.0
2015-Mar-01 15:32N 01°16' E 103°50'0 0.0
2015-Mar-01 14:32N 01°16' E 103°50'0 0.0
2015-Mar-01 13:32N 01°16' E 103°50'0 0.0
2015-Mar-01 12:32N 01°16' E 103°50'0 0.3
2015-Mar-01 11:33N 01°16' E 103°50'0 0.0
2015-Mar-01 10:33N 01°16' E 103°50'0 0.0
2015-Mar-01 09:31N 01°16' E 103°50'0 0.0
2015-Mar-01 08:28N 01°16' E 103°50'0 0.0
2015-Mar-01 07:31N 01°16' E 103°50'0 0.0
2015-Mar-01 06:31N 01°16' E 103°50'0 0.0
2015-Mar-01 05:31N 01°16' E 103°50'0 0.0
2015-Mar-01 04:31N 01°16' E 103°50'0 0.0
2015-Mar-01 03:31N 01°16' E 103°50'0 0.0
2015-Mar-01 02:31N 01°16' E 103°50'0 0.0
2015-Mar-01 01:31N 01°16' E 103°50'0 0.0
2015-Mar-01 00:25N 01°16' E 103°50'0 0.0
2015-Feb-28 23:19N 01°16' E 103°50'0 0.0
2015-Feb-28 22:31N 01°16' E 103°50'0 0.1
2015-Feb-28 21:31N 01°16' E 103°50'0 0.1
2015-Feb-28 20:31N 01°16' E 103°50'0 0.0
2015-Feb-28 19:16N 01°16' E 103°50'0 0.0
2015-Feb-28 18:25N 01°16' E 103°50'0 0.0
2015-Feb-28 17:31N 01°16' E 103°50'0 0.0
2015-Feb-28 16:25N 01°16' E 103°50'0 0.0
2015-Feb-28 15:31N 01°16' E 103°50'0 0.0
2015-Feb-28 14:31N 01°16' E 103°50'0 0.0
2015-Feb-28 13:31N 01°16' E 103°50'1 0.8
2015-Feb-28 12:33N 01°15' E 103°51'2 2.1
2015-Feb-28 11:23N 01°14' E 103°53'1 0.8
2015-Feb-28 10:33N 01°14' E 103°53'10 9.9
2015-Feb-28 09:33N 01°16' E 104°03'1413.5
2015-Feb-28 08:33N 01°18' E 104°17'  
2015-Feb-25 03:33N 21°59' E 114°23'1716.8
2015-Feb-25 02:33N 22°15' E 114°30'2410.8
2015-Feb-25 00:22N 22°34' E 114°16'0 0.0
2015-Feb-24 18:06N 22°34' E 114°16'0 0.0
2015-Feb-24 17:24N 22°34' E 114°16'0 0.0
2015-Feb-24 16:24N 22°34' E 114°16'15 2.3
2015-Feb-24 10:05N 22°25' E 114°28'710.9
2015-Feb-24 09:24N 22°17' E 114°30'1212.9
2015-Feb-24 08:29N 22°08' E 114°22'2211.0
2015-Feb-24 06:29N 22°21' E 114°03'1010.3
2015-Feb-24 05:33N 22°25' E 113°53'2 2.1
2015-Feb-24 04:33N 22°27' E 113°53'0 0.0
2015-Feb-24 03:33N 22°27' E 113°53'0 0.0
2015-Feb-24 02:33N 22°27' E 113°53'0 0.1
2015-Feb-24 01:33N 22°27' E 113°53'0 0.1
2015-Feb-24 00:33N 22°27' E 113°53'0 0.0
2015-Feb-23 23:33N 22°27' E 113°53'0 0.0
2015-Feb-23 22:33N 22°27' E 113°53'0 0.0
2015-Feb-23 21:33N 22°27' E 113°53'0 0.0
2015-Feb-23 20:33N 22°27' E 113°53'0 0.0
2015-Feb-23 19:33N 22°27' E 113°53'0 0.0
2015-Feb-23 18:27N 22°27' E 113°53'0 0.0
2015-Feb-23 17:33N 22°27' E 113°53'0 0.0
2015-Feb-23 16:33N 22°27' E 113°53'0 0.0
2015-Feb-23 15:33N 22°27' E 113°53'0 0.0
2015-Feb-23 14:33N 22°27' E 113°53'0 0.0
2015-Feb-23 13:33N 22°27' E 113°53'0 0.1
2015-Feb-23 12:33N 22°27' E 113°53'0 0.1
2015-Feb-23 11:33N 22°27' E 113°53'0 0.1
2015-Feb-23 10:27N 22°27' E 113°53'0 0.1
2015-Feb-23 09:27N 22°27' E 113°53'0 0.0
2015-Feb-23 08:33N 22°27' E 113°53'0 0.0
2015-Feb-23 07:21N 22°27' E 113°53'0 0.5
2015-Feb-23 06:33N 22°27' E 113°53'14 7.1
2015-Feb-23 04:33N 22°21' E 114°07'0 0.3
2015-Feb-23 03:33N 22°21' E 114°07'0 0.0
2015-Feb-23 02:08N 22°21' E 114°07'0 0.0
2015-Feb-23 01:32N 22°21' E 114°07'0 0.0
2015-Feb-23 00:23N 22°21' E 114°07'0 0.0
2015-Feb-22 23:32N 22°21' E 114°07'0 0.0
2015-Feb-22 22:29N 22°21' E 114°07'0 0.0
2015-Feb-22 21:29N 22°21' E 114°07'0 0.0
2015-Feb-22 20:32N 22°21' E 114°07'0 0.0
2015-Feb-22 19:32N 22°21' E 114°07'0 0.0
2015-Feb-22 18:29N 22°21' E 114°07'0 0.0
2015-Feb-22 17:29N 22°21' E 114°07'0 0.0
2015-Feb-22 16:29N 22°21' E 114°07'0 0.0
2015-Feb-22 15:32N 22°21' E 114°07'0 0.0
2015-Feb-22 14:05N 22°21' E 114°07'0 0.0
2015-Feb-22 13:29N 22°21' E 114°07'0 0.0
2015-Feb-22 12:32N 22°21' E 114°07'0 0.0
2015-Feb-22 11:23N 22°21' E 114°07'0 0.0
2015-Feb-22 10:23N 22°21' E 114°07'0 0.0
2015-Feb-22 09:32N 22°21' E 114°07'0 0.0
2015-Feb-22 08:32N 22°21' E 114°07'0 0.0
2015-Feb-22 07:32N 22°21' E 114°07'4 4.2
2015-Feb-22 06:33N 22°17' E 114°06'8 8.1
2015-Feb-22 05:33N 22°11' E 114°12'9 8.8
2015-Feb-22 04:33N 22°08' E 114°21'1010.3
2015-Feb-22 03:33N 21°58' E 114°23'1411.4
2015-Feb-22 02:22N 21°45' E 114°20'  
Track history (hours):
 
Tides and Currents Weather Stations Pressure Air Temp Water Temp Dewpoint Dewpoint Depression Visibility Wind Speed Wind Dir Waves Ship Positions

OOCL Hamburg

Last reported at 2015-Mar-02 13:04 UTC. Time now 2015-Mar-05 20:15 UTC.
Position N 01°59' E 102°12'.

Length 323 m; beam 42.8 m; draft 14.5 m.

Type: Cargo ship. MMSI: 477702000.

Date/timePositionNaut miles runAvg speedWind from/ knotsBaromVisibWave heightAir tempDewpointWater temp
2015-Mar-02 13:04N 01°59' E 102°12'1018.2
2015-Mar-02 12:31N 01°55' E 102°21'1818.1
2015-Mar-02 11:32N 01°46' E 102°37'7518.7
2015-Mar-02 07:31N 01°09' E 103°42'1111.5
2015-Mar-02 06:33N 01°13' E 103°53'3 3.4
2015-Mar-02 05:33N 01°16' E 103°50'0 0.0
2015-Mar-02 04:33N 01°16' E 103°50'0 0.0
2015-Mar-02 03:32N 01°16' E 103°50'0 0.0
2015-Mar-02 02:32N 01°16' E 103°50'0 0.0
2015-Mar-02 01:32N 01°16' E 103°50'0 0.0
2015-Mar-02 00:32N 01°16' E 103°50'0 0.0
2015-Mar-01 23:20N 01°16' E 103°50'0 0.0
2015-Mar-01 22:32N 01°16' E 103°50'0 0.0
2015-Mar-01 21:32N 01°16' E 103°50'0 0.0
2015-Mar-01 20:32N 01°16' E 103°50'0 0.0
2015-Mar-01 19:20N 01°16' E 103°50'0 0.0
2015-Mar-01 18:32N 01°16' E 103°50'0 0.0
2015-Mar-01 17:26N 01°16' E 103°50'0 0.0
2015-Mar-01 16:32N 01°16' E 103°50'0 0.0
2015-Mar-01 15:32N 01°16' E 103°50'0 0.0
2015-Mar-01 14:32N 01°16' E 103°50'0 0.0
2015-Mar-01 13:32N 01°16' E 103°50'0 0.0
2015-Mar-01 12:32N 01°16' E 103°50'0 0.3
2015-Mar-01 11:33N 01°16' E 103°50'0 0.0
2015-Mar-01 10:33N 01°16' E 103°50'0 0.0
2015-Mar-01 09:31N 01°16' E 103°50'0 0.0
2015-Mar-01 08:28N 01°16' E 103°50'0 0.0
2015-Mar-01 07:31N 01°16' E 103°50'0 0.0
2015-Mar-01 06:31N 01°16' E 103°50'0 0.0
2015-Mar-01 05:31N 01°16' E 103°50'0 0.0
2015-Mar-01 04:31N 01°16' E 103°50'0 0.0
2015-Mar-01 03:31N 01°16' E 103°50'0 0.0
2015-Mar-01 02:31N 01°16' E 103°50'0 0.0
2015-Mar-01 01:31N 01°16' E 103°50'0 0.0
2015-Mar-01 00:25N 01°16' E 103°50'0 0.0
2015-Feb-28 23:19N 01°16' E 103°50'0 0.0
2015-Feb-28 22:31N 01°16' E 103°50'0 0.1
2015-Feb-28 21:31N 01°16' E 103°50'0 0.1
2015-Feb-28 20:31N 01°16' E 103°50'0 0.0
2015-Feb-28 19:16N 01°16' E 103°50'0 0.0
2015-Feb-28 18:25N 01°16' E 103°50'0 0.0
2015-Feb-28 17:31N 01°16' E 103°50'0 0.0
2015-Feb-28 16:25N 01°16' E 103°50'0 0.0
2015-Feb-28 15:31N 01°16' E 103°50'0 0.0
2015-Feb-28 14:31N 01°16' E 103°50'0 0.0
2015-Feb-28 13:31N 01°16' E 103°50'1 0.8
2015-Feb-28 12:33N 01°15' E 103°51'2 2.1
2015-Feb-28 11:23N 01°14' E 103°53'1 0.8
2015-Feb-28 10:33N 01°14' E 103°53'10 9.9
2015-Feb-28 09:33N 01°16' E 104°03'1413.5
2015-Feb-28 08:33N 01°18' E 104°17'  
2015-Feb-25 03:33N 21°59' E 114°23'1716.8
2015-Feb-25 02:33N 22°15' E 114°30'2410.8
2015-Feb-25 00:22N 22°34' E 114°16'0 0.0
2015-Feb-24 18:06N 22°34' E 114°16'0 0.0
2015-Feb-24 17:24N 22°34' E 114°16'0 0.0
2015-Feb-24 16:24N 22°34' E 114°16'15 2.3
2015-Feb-24 10:05N 22°25' E 114°28'710.9
2015-Feb-24 09:24N 22°17' E 114°30'1212.9
2015-Feb-24 08:29N 22°08' E 114°22'2211.0
2015-Feb-24 06:29N 22°21' E 114°03'1010.3
2015-Feb-24 05:33N 22°25' E 113°53'2 2.1
2015-Feb-24 04:33N 22°27' E 113°53'0 0.0
2015-Feb-24 03:33N 22°27' E 113°53'0 0.0
2015-Feb-24 02:33N 22°27' E 113°53'0 0.1
2015-Feb-24 01:33N 22°27' E 113°53'0 0.1
2015-Feb-24 00:33N 22°27' E 113°53'0 0.0
2015-Feb-23 23:33N 22°27' E 113°53'0 0.0
2015-Feb-23 22:33N 22°27' E 113°53'0 0.0
2015-Feb-23 21:33N 22°27' E 113°53'0 0.0
2015-Feb-23 20:33N 22°27' E 113°53'0 0.0
2015-Feb-23 19:33N 22°27' E 113°53'0 0.0
2015-Feb-23 18:27N 22°27' E 113°53'0 0.0
2015-Feb-23 17:33N 22°27' E 113°53'0 0.0
2015-Feb-23 16:33N 22°27' E 113°53'0 0.0
2015-Feb-23 15:33N 22°27' E 113°53'0 0.0
2015-Feb-23 14:33N 22°27' E 113°53'0 0.0
2015-Feb-23 13:33N 22°27' E 113°53'0 0.1
2015-Feb-23 12:33N 22°27' E 113°53'0 0.1
2015-Feb-23 11:33N 22°27' E 113°53'0 0.1
2015-Feb-23 10:27N 22°27' E 113°53'0 0.1
2015-Feb-23 09:27N 22°27' E 113°53'0 0.0
2015-Feb-23 08:33N 22°27' E 113°53'0 0.0
2015-Feb-23 07:21N 22°27' E 113°53'0 0.5
2015-Feb-23 06:33N 22°27' E 113°53'14 7.1
2015-Feb-23 04:33N 22°21' E 114°07'0 0.3
2015-Feb-23 03:33N 22°21' E 114°07'0 0.0
2015-Feb-23 02:08N 22°21' E 114°07'0 0.0
2015-Feb-23 01:32N 22°21' E 114°07'0 0.0
2015-Feb-23 00:23N 22°21' E 114°07'0 0.0
2015-Feb-22 23:32N 22°21' E 114°07'0 0.0
2015-Feb-22 22:29N 22°21' E 114°07'0 0.0
2015-Feb-22 21:29N 22°21' E 114°07'0 0.0
2015-Feb-22 20:32N 22°21' E 114°07'0 0.0
2015-Feb-22 19:32N 22°21' E 114°07'0 0.0
2015-Feb-22 18:29N 22°21' E 114°07'0 0.0
2015-Feb-22 17:29N 22°21' E 114°07'0 0.0
2015-Feb-22 16:29N 22°21' E 114°07'0 0.0
2015-Feb-22 15:32N 22°21' E 114°07'0 0.0
2015-Feb-22 14:05N 22°21' E 114°07'0 0.0
2015-Feb-22 13:29N 22°21' E 114°07'0 0.0
2015-Feb-22 12:32N 22°21' E 114°07'0 0.0
2015-Feb-22 11:23N 22°21' E 114°07'0 0.0
2015-Feb-22 10:23N 22°21' E 114°07'0 0.0
2015-Feb-22 09:32N 22°21' E 114°07'0 0.0
2015-Feb-22 08:32N 22°21' E 114°07'0 0.0
2015-Feb-22 07:32N 22°21' E 114°07'4 4.2
2015-Feb-22 06:33N 22°17' E 114°06'8 8.1
2015-Feb-22 05:33N 22°11' E 114°12'9 8.8
2015-Feb-22 04:33N 22°08' E 114°21'1010.3
2015-Feb-22 03:33N 21°58' E 114°23'1411.4
2015-Feb-22 02:22N 21°45' E 114°20'  

Dump ship's entire track history